Terminal Aerodrome Forecast
Issued by NWS Sioux Falls, SD

Home | Current Version | Previous Version | Graphics & Text | Print | Product List | Glossary On
Versions: 1 2 3 4 5 6 7 8 9 10 11 12 13 14 15 16 17
000
FTUS43 KFSD 291539 AAD
TAFFSD
TAF AMD
KFSD 291539Z 2916/3012 34008KT P6SM -RA SCT009 OVC100
      TEMPO 2916/2918 BKN009
     FM291800 36015G22KT P6SM SCT010 OVC015
     FM292000 01018G25KT P6SM OVC015
     FM300100 01013KT P6SM SCT030 BKN200
     FM300800 36008KT P6SM SCT200=

USA.gov is the U.S. government's official web portal to all federal, state and local government web resources and services.